createdAt,value
2018-06-12T00:01:18.266Z,50.95
2018-06-12T00:03:48.761Z,50.89
2018-06-12T00:06:19.086Z,51.55
2018-06-12T00:08:49.594Z,50.42
2018-06-12T00:11:19.959Z,51.15
2018-06-12T00:13:50.289Z,51.03
2018-06-12T00:16:20.554Z,50.12
2018-06-12T00:18:50.825Z,50.16
2018-06-12T00:21:21.382Z,50.41
2018-06-12T00:23:51.722Z,50.45
2018-06-12T00:26:22.294Z,50.69
2018-06-12T00:28:52.636Z,51.06
2018-06-12T00:31:23.015Z,51.01
2018-06-12T00:33:53.297Z,51.70
2018-06-12T00:36:23.653Z,51.24
2018-06-12T00:38:53.916Z,52.23
2018-06-12T00:41:24.304Z,53.30
2018-06-12T00:43:54.636Z,53.90
2018-06-12T00:46:24.967Z,54.82
2018-06-12T00:48:55.229Z,54.32
2018-06-12T00:51:25.562Z,53.22
2018-06-12T00:53:55.877Z,53.26
2018-06-12T00:56:42.513Z,53.68
2018-06-12T00:59:12.781Z,53.11
2018-06-12T01:01:43.249Z,53.14
2018-06-12T01:04:13.514Z,53.90
2018-06-12T01:06:43.838Z,53.53
2018-06-12T01:09:14.273Z,53.30
2018-06-12T01:11:44.574Z,53.06
2018-06-12T01:14:14.979Z,53.12
2018-06-12T01:16:45.281Z,53.34
2018-06-12T01:19:15.581Z,53.64
2018-06-12T01:21:45.861Z,53.56
2018-06-12T01:24:16.329Z,53.74
2018-06-12T01:26:46.614Z,53.19
2018-06-12T01:29:16.930Z,54.13
2018-06-12T01:31:47.196Z,53.33
2018-06-12T01:34:17.541Z,53.13
2018-06-12T01:36:47.805Z,54.02
2018-06-12T01:39:18.121Z,54.66
2018-06-12T01:41:48.437Z,54.86
2018-06-12T01:44:19.337Z,55.00
2018-06-12T01:46:49.606Z,54.46
2018-06-12T01:49:20.135Z,54.83
2018-06-12T01:51:50.468Z,55.20
2018-06-12T01:54:20.794Z,55.13
2018-06-12T01:56:51.198Z,55.06
2018-06-12T01:59:21.525Z,54.83
2018-06-12T02:01:52.005Z,54.73
2018-06-12T02:04:22.257Z,54.42
2018-06-12T02:06:52.090Z,53.92
2018-06-12T02:09:22.409Z,54.10
2018-06-12T02:11:52.665Z,53.64
2018-06-12T02:14:22.976Z,55.05
2018-06-12T02:16:53.293Z,55.04
2018-06-12T02:19:23.563Z,54.78
2018-06-12T02:21:53.939Z,54.74
2018-06-12T02:24:24.267Z,55.52
2018-06-12T02:26:54.541Z,56.38
2018-06-12T02:29:24.859Z,55.06
2018-06-12T02:31:55.182Z,55.54
2018-06-12T02:34:25.509Z,55.92
2018-06-12T02:36:55.842Z,56.63
2018-06-12T02:39:26.108Z,55.85
2018-06-12T02:41:56.640Z,56.40
2018-06-12T02:44:26.918Z,56.23
2018-06-12T02:46:57.485Z,56.92
2018-06-12T02:49:27.786Z,59.06
2018-06-12T02:51:58.297Z,60.33
2018-06-12T02:54:28.108Z,60.40
2018-06-12T02:56:58.786Z,60.59
2018-06-12T02:59:29.111Z,60.15
2018-06-12T03:02:02.512Z,58.76
2018-06-12T03:04:32.871Z,58.87
2018-06-12T03:07:03.288Z,59.11
2018-06-12T03:09:33.626Z,58.93
2018-06-12T03:12:04.013Z,59.23
2018-06-12T03:14:34.265Z,59.30
2018-06-12T03:17:05.410Z,59.20
2018-06-12T03:19:35.742Z,59.44
2018-06-12T03:22:06.097Z,58.49
2018-06-12T03:24:36.361Z,58.01
2018-06-12T03:27:06.836Z,56.81
2018-06-12T03:29:37.109Z,56.15
2018-06-12T03:32:07.614Z,57.12
2018-06-12T03:34:37.896Z,55.79
2018-06-12T03:37:08.413Z,55.45
2018-06-12T03:39:38.675Z,54.41
2018-06-12T03:42:09.151Z,53.84
2018-06-12T03:44:39.438Z,53.32
2018-06-12T03:47:09.842Z,52.69
2018-06-12T03:49:40.166Z,52.56
2018-06-12T03:52:10.485Z,56.34
2018-06-12T03:54:40.757Z,55.93
2018-06-12T03:57:11.305Z,56.52
2018-06-12T03:59:41.653Z,56.63
2018-06-12T04:02:12.051Z,56.59
2018-06-12T04:04:42.305Z,55.11
2018-06-12T04:07:12.799Z,55.99
2018-06-12T04:09:43.162Z,55.00
2018-06-12T04:12:13.485Z,54.96
2018-06-12T04:14:43.807Z,54.32
2018-06-12T04:17:14.452Z,54.73
2018-06-12T04:19:44.732Z,54.67
2018-06-12T04:22:15.074Z,54.37
2018-06-12T04:24:45.337Z,53.65
2018-06-12T04:27:15.690Z,53.60
2018-06-12T04:29:45.965Z,54.09
2018-06-12T04:32:16.295Z,53.02
2018-06-12T04:34:46.774Z,52.65
2018-06-12T04:37:17.041Z,50.51
2018-06-12T04:39:47.378Z,52.50
2018-06-12T04:42:17.696Z,51.12
2018-06-12T04:44:47.977Z,50.11
2018-06-12T04:47:18.274Z,47.92
2018-06-12T04:49:48.732Z,47.34
2018-06-12T04:52:19.004Z,46.30
2018-06-12T04:54:49.360Z,45.96
2018-06-12T04:57:19.651Z,45.48
2018-06-12T04:59:49.969Z,46.75
2018-06-12T05:02:20.302Z,46.91
2018-06-12T05:04:50.623Z,48.94
2018-06-12T05:07:20.897Z,49.84
2018-06-12T05:09:51.176Z,51.29
2018-06-12T05:12:21.802Z,52.15
2018-06-12T05:14:53.049Z,50.39
2018-06-12T05:17:23.366Z,52.05
2018-06-12T05:19:53.648Z,52.27
2018-06-12T05:22:24.164Z,53.88
2018-06-12T05:24:54.461Z,55.08
2018-06-12T05:27:24.881Z,56.54
2018-06-12T05:29:55.197Z,54.92
2018-06-12T05:32:25.521Z,55.09
2018-06-12T05:34:56.149Z,57.10
2018-06-12T05:37:26.502Z,57.07
2018-06-12T05:39:56.775Z,56.33
2018-06-12T05:42:27.323Z,56.66
2018-06-12T05:44:57.610Z,56.65
2018-06-12T05:47:27.962Z,57.31
2018-06-12T05:49:58.386Z,57.01
2018-06-12T05:52:28.974Z,56.63
2018-06-12T05:54:59.253Z,55.89
2018-06-12T05:57:29.702Z,55.21
2018-06-12T05:59:59.983Z,54.79
2018-06-12T06:02:30.393Z,52.31
2018-06-12T06:05:00.659Z,51.83
2018-06-12T06:07:31.217Z,49.48
2018-06-12T06:10:01.511Z,48.24
2018-06-12T06:12:31.837Z,47.45
2018-06-12T06:15:02.142Z,46.45
2018-06-12T06:17:32.623Z,48.06
2018-06-12T06:20:02.937Z,45.49
2018-06-12T06:22:33.234Z,44.91
2018-06-12T06:25:03.631Z,45.82
2018-06-12T06:27:33.913Z,45.38
2018-06-12T06:30:04.478Z,45.52
2018-06-12T06:32:34.758Z,42.64
2018-06-12T06:35:05.086Z,42.79
2018-06-12T06:37:35.821Z,42.97
2018-06-12T06:40:06.194Z,44.25
2018-06-12T06:42:36.558Z,40.36
2018-06-12T06:45:06.925Z,40.44
2018-06-12T06:47:37.213Z,41.29
2018-06-12T06:50:07.548Z,40.44
2018-06-12T06:52:37.818Z,38.48
2018-06-12T06:55:08.103Z,36.34
2018-06-12T06:57:38.762Z,37.45
2018-06-12T07:00:09.075Z,36.13
2018-06-12T07:02:39.418Z,34.54
2018-06-12T07:05:09.766Z,37.07
2018-06-12T07:07:40.127Z,37.58
2018-06-12T07:10:10.794Z,34.77
2018-06-12T07:12:41.091Z,37.09
2018-06-12T07:15:11.446Z,34.55
2018-06-12T07:17:41.725Z,36.24
2018-06-12T07:20:12.358Z,37.49
2018-06-12T07:22:42.965Z,38.02
2018-06-12T07:25:13.765Z,38.32
2018-06-12T07:27:44.037Z,38.05
2018-06-12T07:30:14.358Z,35.77
2018-06-12T07:32:44.617Z,34.14
2018-06-12T07:35:14.930Z,33.46
2018-06-12T07:37:45.644Z,34.19
2018-06-12T07:40:15.958Z,36.53
2018-06-12T07:42:46.367Z,36.54
2018-06-12T07:45:16.695Z,37.43
2018-06-12T07:47:47.069Z,38.18
2018-06-12T07:50:17.353Z,38.00
2018-06-12T07:52:47.749Z,37.34
2018-06-12T07:55:18.195Z,35.96
2018-06-12T07:57:48.804Z,35.73
2018-06-12T08:00:19.089Z,35.77
2018-06-12T08:02:49.862Z,37.98
2018-06-12T08:05:20.194Z,36.36
2018-06-12T08:07:51.713Z,35.88
2018-06-12T08:10:22.399Z,36.40
2018-06-12T08:12:53.304Z,35.24
2018-06-12T08:15:23.614Z,35.75
2018-06-12T08:17:54.030Z,33.94
2018-06-12T08:20:24.358Z,32.31
2018-06-12T08:22:55.057Z,33.66
2018-06-12T08:25:25.689Z,31.82
2018-06-12T08:27:56.769Z,30.41
2018-06-12T08:30:27.447Z,29.49
2018-06-12T08:32:57.810Z,30.62
2018-06-12T08:35:28.165Z,31.92
2018-06-12T08:37:58.594Z,33.12
2018-06-12T08:40:28.901Z,30.22
2018-06-12T08:42:59.323Z,31.33
2018-06-12T08:45:29.598Z,31.21
2018-06-12T08:47:59.916Z,32.06
2018-06-12T08:50:30.661Z,33.73
2018-06-12T08:53:01.545Z,31.34
2018-06-12T08:55:31.896Z,31.08
2018-06-12T08:58:02.181Z,32.35
2018-06-12T09:00:32.599Z,30.82
2018-06-12T09:03:02.962Z,31.33
2018-06-12T09:05:33.690Z,31.74
2018-06-12T09:08:04.064Z,31.04
2018-06-12T09:10:34.810Z,30.56
2018-06-12T09:13:05.267Z,28.13
2018-06-12T09:15:35.814Z,27.14
2018-06-12T09:18:06.297Z,29.41
2018-06-12T09:20:36.799Z,28.55
2018-06-12T09:23:07.218Z,30.42
2018-06-12T09:25:37.570Z,28.12
2018-06-12T09:28:07.946Z,29.56
2018-06-12T09:30:38.506Z,28.43
2018-06-12T09:33:08.874Z,29.08
2018-06-12T09:35:39.277Z,28.69
2018-06-12T09:38:09.581Z,28.07
2018-06-12T09:40:39.915Z,25.25
2018-06-12T09:43:10.330Z,24.70
2018-06-12T09:45:40.645Z,23.67
2018-06-12T09:48:11.193Z,25.10
2018-06-12T09:50:41.554Z,24.33
2018-06-12T09:53:11.885Z,26.28
2018-06-12T09:55:42.173Z,23.00
2018-06-12T09:58:12.527Z,24.66
2018-06-12T10:00:47.983Z,23.71
2018-06-12T10:03:18.634Z,23.05
2018-06-12T10:05:49.042Z,23.65
2018-06-12T10:08:19.426Z,22.34
2018-06-12T10:10:49.767Z,22.09
2018-06-12T10:13:20.292Z,23.15
2018-06-12T10:15:50.694Z,22.05
2018-06-12T10:18:21.406Z,23.31
2018-06-12T10:20:51.744Z,22.09
2018-06-12T10:23:22.134Z,22.97
2018-06-12T10:25:52.506Z,21.84
2018-06-12T10:28:22.896Z,22.19
2018-06-12T10:30:53.254Z,22.29
2018-06-12T10:33:23.909Z,23.73
2018-06-12T10:35:54.294Z,22.38
2018-06-12T10:38:24.779Z,20.19
2018-06-12T10:40:55.151Z,21.54
2018-06-12T10:43:25.540Z,22.30
2018-06-12T10:45:55.859Z,21.91
2018-06-12T10:48:26.466Z,21.55
2018-06-12T10:50:56.797Z,21.30
2018-06-12T10:53:27.222Z,17.60
2018-06-12T10:55:57.521Z,17.77
2018-06-12T10:58:28.317Z,18.74
2018-06-12T11:00:58.637Z,19.25
2018-06-12T11:03:29.185Z,18.22
2018-06-12T11:05:59.491Z,18.82
2018-06-12T11:08:29.874Z,19.29
2018-06-12T11:11:00.302Z,18.65
2018-06-12T11:13:30.651Z,18.72
2018-06-12T11:16:00.605Z,18.02
2018-06-12T11:18:31.021Z,19.69
2018-06-12T11:21:01.329Z,20.70
2018-06-12T11:23:31.709Z,20.32
2018-06-12T11:26:02.031Z,20.78
2018-06-12T11:28:32.594Z,21.13
2018-06-12T11:31:02.947Z,19.38
2018-06-12T11:33:33.350Z,20.93
2018-06-12T11:36:03.874Z,21.16
2018-06-12T11:38:34.276Z,20.76
2018-06-12T11:41:04.683Z,19.87
2018-06-12T11:43:35.061Z,20.08
2018-06-12T11:46:06.165Z,21.93
2018-06-12T11:48:36.553Z,20.84
2018-06-12T11:51:06.973Z,20.64
2018-06-12T11:53:37.542Z,21.08
2018-06-12T11:56:07.863Z,21.82
2018-06-12T11:58:38.390Z,23.02
2018-06-12T12:01:09.256Z,22.35
2018-06-12T12:03:39.750Z,20.76
2018-06-12T12:06:10.331Z,23.14
2018-06-12T12:08:41.006Z,20.64
2018-06-12T12:11:11.313Z,21.67
2018-06-12T12:13:41.674Z,21.15
2018-06-12T12:16:12.295Z,21.20
2018-06-12T12:18:42.614Z,23.57
2018-06-12T12:21:13.368Z,22.19
2018-06-12T12:23:44.148Z,21.40
2018-06-12T12:26:14.549Z,21.52
2018-06-12T12:28:44.917Z,21.92
2018-06-12T12:31:15.575Z,20.96
2018-06-12T12:33:45.935Z,19.14
2018-06-12T12:36:16.301Z,19.64
2018-06-12T12:38:46.581Z,20.34
2018-06-12T12:41:16.933Z,20.06
2018-06-12T12:43:47.336Z,21.07
2018-06-12T12:46:17.971Z,20.45
2018-06-12T12:48:48.273Z,22.11
2018-06-12T12:51:18.745Z,23.51
2018-06-12T12:53:49.102Z,22.24
2018-06-12T12:56:19.514Z,22.11
2018-06-12T12:58:49.817Z,22.89
2018-06-12T13:01:20.269Z,22.79
2018-06-12T13:03:50.694Z,20.81
2018-06-12T13:06:21.189Z,22.25
2018-06-12T13:08:51.559Z,22.16
2018-06-12T13:11:21.985Z,22.25
2018-06-12T13:13:52.343Z,22.96
2018-06-12T13:16:22.747Z,20.42
2018-06-12T13:18:53.375Z,22.14
2018-06-12T13:21:23.666Z,19.90
2018-06-12T13:23:54.142Z,20.82
2018-06-12T13:26:24.054Z,22.31
2018-06-12T13:28:54.590Z,22.36
2018-06-12T13:31:24.906Z,22.03
2018-06-12T13:33:55.834Z,22.94
2018-06-12T13:36:26.238Z,21.33
2018-06-12T13:38:56.610Z,21.89
2018-06-12T13:41:26.903Z,22.98
2018-06-12T13:43:57.252Z,23.21
2018-06-12T13:46:27.166Z,22.00
2018-06-12T13:48:57.487Z,21.58
2018-06-12T13:51:27.372Z,21.86
2018-06-12T13:53:57.665Z,23.43
2018-06-12T13:56:28.120Z,22.54
2018-06-12T13:58:58.437Z,23.39
2018-06-12T14:01:28.966Z,21.67
2018-06-12T14:03:59.347Z,21.19
2018-06-12T14:06:29.797Z,21.51
2018-06-12T14:09:00.086Z,23.26
2018-06-12T14:11:30.455Z,23.58
2018-06-12T14:14:00.906Z,22.67
2018-06-12T14:16:31.194Z,22.75
2018-06-12T14:19:01.688Z,22.72
2018-06-12T14:21:31.989Z,22.17
2018-06-12T14:24:02.304Z,22.45
2018-06-12T14:26:32.669Z,22.33
2018-06-12T14:29:03.038Z,23.53
2018-06-12T14:31:33.402Z,23.81
2018-06-12T14:34:03.898Z,23.49
2018-06-12T14:36:34.605Z,24.57
2018-06-12T14:39:06.653Z,24.47
2018-06-12T14:41:37.938Z,24.33
2018-06-12T14:44:08.836Z,24.37
2018-06-12T14:46:39.218Z,24.29
2018-06-12T14:49:09.622Z,23.43
2018-06-12T14:51:40.680Z,23.04
2018-06-12T14:54:11.086Z,23.54
2018-06-12T14:56:42.253Z,22.90
2018-06-12T14:59:12.769Z,24.00
2018-06-12T15:01:43.061Z,22.48
2018-06-12T15:04:13.577Z,23.66
2018-06-12T15:06:44.158Z,24.29
2018-06-12T15:09:14.785Z,22.18
2018-06-12T15:11:45.130Z,22.36
2018-06-12T15:14:15.877Z,21.17
2018-06-12T15:16:46.165Z,23.44
2018-06-12T15:19:17.054Z,21.74
2018-06-12T15:21:47.398Z,26.43
2018-06-12T15:24:17.744Z,21.99
2018-06-12T15:26:48.450Z,21.50
2018-06-12T15:29:19.218Z,23.10
2018-06-12T15:31:50.108Z,21.46
2018-06-12T15:34:20.662Z,23.24
2018-06-12T15:36:50.973Z,22.65
2018-06-12T15:39:21.302Z,23.02
2018-06-12T15:41:51.738Z,24.66
2018-06-12T15:44:22.061Z,24.71
2018-06-12T15:46:52.807Z,24.93
2018-06-12T15:49:23.524Z,24.73
2018-06-12T15:51:54.492Z,25.64
2018-06-12T15:54:25.066Z,24.60
2018-06-12T15:56:55.948Z,24.67
2018-06-12T15:59:26.541Z,24.84
2018-06-12T16:01:58.352Z,25.70
2018-06-12T16:04:28.875Z,24.99
2018-06-12T16:06:59.260Z,27.24
2018-06-12T16:09:29.673Z,26.66
2018-06-12T16:12:00.170Z,26.99
2018-06-12T16:14:30.843Z,27.05
2018-06-12T16:17:01.501Z,27.25
2018-06-12T16:19:31.797Z,26.65
2018-06-12T16:22:02.312Z,26.92
2018-06-12T16:24:32.702Z,27.40
2018-06-12T16:27:03.057Z,28.56
2018-06-12T16:29:33.416Z,28.01
2018-06-12T16:32:03.820Z,29.91
2018-06-12T16:34:34.322Z,30.22
2018-06-12T16:37:05.282Z,31.16
2018-06-12T16:39:35.634Z,31.12
2018-06-12T16:42:06.029Z,30.27
2018-06-12T16:44:36.397Z,30.04
2018-06-12T16:47:06.861Z,30.86
2018-06-12T16:49:37.165Z,32.51
2018-06-12T16:52:07.618Z,34.07
2018-06-12T16:54:37.960Z,35.91
2018-06-12T16:57:08.392Z,36.37
2018-06-12T16:59:38.908Z,37.09
2018-06-12T17:02:09.225Z,37.74
2018-06-12T17:04:39.653Z,37.68
2018-06-12T17:07:09.957Z,38.07
2018-06-12T17:09:40.340Z,37.89
2018-06-12T17:12:10.775Z,37.74
2018-06-12T17:14:41.242Z,37.08
2018-06-12T17:17:11.605Z,37.28
2018-06-12T17:19:41.945Z,38.04
2018-06-12T17:22:12.325Z,38.58
2018-06-12T17:24:42.686Z,38.38
2018-06-12T17:27:13.050Z,38.24
2018-06-12T17:29:43.311Z,39.56
2018-06-12T17:32:13.878Z,39.80
2018-06-12T17:34:44.149Z,39.50
2018-06-12T17:37:14.578Z,40.50
2018-06-12T17:39:44.845Z,40.43
2018-06-12T17:42:15.265Z,41.28
2018-06-12T17:44:45.613Z,41.72
2018-06-12T17:47:15.965Z,41.95
2018-06-12T17:49:46.237Z,41.52
2018-06-12T17:52:16.873Z,41.24
2018-06-12T17:54:47.210Z,42.19
2018-06-12T17:57:17.562Z,41.57
2018-06-12T17:59:47.985Z,41.52
2018-06-12T18:02:18.353Z,41.68
2018-06-12T18:04:48.633Z,39.98
2018-06-12T18:07:19.006Z,39.60
2018-06-12T18:09:49.335Z,39.86
2018-06-12T18:12:20.203Z,39.69
2018-06-12T18:14:50.569Z,38.36
2018-06-12T18:17:21.866Z,37.86
2018-06-12T18:19:57.218Z,37.11
2018-06-12T18:22:27.606Z,37.50
2018-06-12T18:24:57.981Z,37.54
2018-06-12T18:27:28.459Z,37.10
2018-06-12T18:29:58.749Z,38.53
2018-06-12T18:32:29.233Z,38.05
2018-06-12T18:34:59.514Z,38.76
2018-06-12T18:37:29.882Z,39.24
2018-06-12T18:40:00.154Z,37.99
2018-06-12T18:42:30.626Z,38.39
2018-06-12T18:45:00.509Z,38.80
2018-06-12T18:47:30.899Z,38.91
2018-06-12T18:50:01.189Z,39.48
2018-06-12T18:52:31.031Z,39.96
2018-06-12T18:55:01.534Z,40.23
2018-06-12T18:57:31.837Z,41.44
2018-06-12T19:00:02.165Z,41.17
2018-06-12T19:02:32.507Z,42.32
2018-06-12T19:05:02.833Z,42.04
2018-06-12T19:07:33.126Z,42.28
2018-06-12T19:10:04.796Z,43.25
2018-06-12T19:12:35.157Z,42.95
2018-06-12T19:15:05.570Z,43.11
2018-06-12T19:17:35.906Z,43.27
2018-06-12T19:20:06.394Z,43.24
2018-06-12T19:22:38.373Z,43.39
2018-06-12T19:25:09.057Z,43.74
2018-06-12T19:27:39.391Z,43.70
2018-06-12T19:30:09.914Z,43.41
2018-06-12T19:32:40.230Z,43.38
2018-06-12T19:35:10.591Z,42.95
2018-06-12T19:37:40.873Z,42.72
2018-06-12T19:40:11.295Z,42.84
2018-06-12T19:42:41.590Z,42.84
2018-06-12T19:45:12.078Z,43.13
2018-06-12T19:47:42.461Z,43.57
2018-06-12T19:50:13.486Z,43.58
2018-06-12T19:52:43.777Z,43.88
2018-06-12T19:55:14.543Z,43.63
2018-06-12T19:57:44.971Z,43.65
2018-06-12T20:00:15.378Z,43.97
2018-06-12T20:02:45.656Z,43.83
2018-06-12T20:05:16.341Z,44.73
2018-06-12T20:07:46.631Z,43.81
2018-06-12T20:10:16.962Z,43.96
2018-06-12T20:12:47.282Z,44.71
2018-06-12T20:15:17.909Z,44.54
2018-06-12T20:17:48.293Z,45.03
2018-06-12T20:20:18.680Z,44.09
2018-06-12T20:22:49.034Z,44.66
2018-06-12T20:25:19.492Z,44.40
2018-06-12T20:27:49.830Z,44.29
2018-06-12T20:30:20.261Z,44.60
2018-06-12T20:32:50.539Z,44.56
2018-06-12T20:35:20.837Z,44.01
2018-06-12T20:37:51.673Z,44.19
2018-06-12T20:40:21.945Z,44.97
2018-06-12T20:42:52.375Z,44.88
2018-06-12T20:45:22.703Z,44.91
2018-06-12T20:47:53.342Z,44.49
2018-06-12T20:50:23.689Z,45.37
2018-06-12T20:52:54.093Z,44.74
2018-06-12T20:55:24.734Z,44.74
2018-06-12T20:57:55.341Z,45.23
2018-06-12T21:00:25.688Z,45.65
2018-06-12T21:02:56.049Z,45.62
2018-06-12T21:05:26.329Z,45.78
2018-06-12T21:07:56.995Z,46.49
2018-06-12T21:10:27.317Z,47.12
2018-06-12T21:12:58.635Z,46.36
2018-06-12T21:15:28.907Z,46.39
2018-06-12T21:17:58.961Z,46.56
2018-06-12T21:20:29.282Z,46.51
2018-06-12T21:22:59.761Z,46.64
2018-06-12T21:25:30.102Z,46.40
2018-06-12T21:28:00.817Z,47.13
2018-06-12T21:30:31.102Z,47.68
2018-06-12T21:33:01.874Z,47.72
2018-06-12T21:35:31.755Z,46.92
2018-06-12T21:38:02.429Z,47.49
2018-06-12T21:40:32.709Z,48.39
2018-06-12T21:43:03.041Z,48.36
2018-06-12T21:45:33.318Z,48.01
2018-06-12T21:48:04.941Z,48.90
2018-06-12T21:50:35.209Z,49.10
2018-06-12T21:53:05.861Z,48.68
2018-06-12T21:55:36.173Z,48.92
2018-06-12T21:58:06.514Z,49.54
2018-06-12T22:00:38.182Z,48.92
2018-06-12T22:03:08.473Z,49.22
2018-06-12T22:05:38.821Z,48.61
2018-06-12T22:08:09.040Z,48.23
2018-06-12T22:10:39.657Z,48.15
2018-06-12T22:13:09.944Z,48.12
2018-06-12T22:15:40.237Z,47.32
2018-06-12T22:18:10.577Z,47.73
2018-06-12T22:20:40.896Z,48.12
2018-06-12T22:23:11.113Z,47.66
2018-06-12T22:25:41.376Z,48.56
2018-06-12T22:28:11.573Z,48.53
2018-06-12T22:30:41.960Z,48.00
2018-06-12T22:33:12.169Z,48.47
2018-06-12T22:35:42.428Z,48.77
2018-06-12T22:38:12.649Z,49.47
2018-06-12T22:40:43.988Z,48.51
2018-06-12T22:43:14.206Z,49.20
2018-06-12T22:45:44.629Z,48.89
2018-06-12T22:48:14.907Z,49.19
2018-06-12T22:50:45.440Z,49.83
2018-06-12T22:53:15.652Z,49.56
2018-06-12T22:55:46.277Z,48.82
2018-06-12T22:58:16.476Z,48.71
2018-06-12T23:00:46.733Z,47.35
2018-06-12T23:03:17.009Z,47.47
2018-06-12T23:05:47.273Z,47.65
2018-06-12T23:08:17.605Z,47.09
2018-06-12T23:10:47.860Z,47.47
2018-06-12T23:13:18.190Z,47.46
2018-06-12T23:15:48.441Z,47.67
2018-06-12T23:18:18.717Z,47.69
2018-06-12T23:21:05.386Z,47.78
2018-06-12T23:23:35.645Z,47.12
2018-06-12T23:26:05.933Z,46.33
2018-06-12T23:28:36.452Z,46.41
2018-06-12T23:31:06.731Z,46.79
2018-06-12T23:33:37.095Z,46.27
2018-06-12T23:36:07.390Z,47.05
2018-06-12T23:38:37.743Z,48.70
2018-06-12T23:41:08.297Z,49.65
2018-06-12T23:43:38.565Z,49.95
2018-06-12T23:46:09.102Z,50.37
2018-06-12T23:48:39.469Z,51.74
2018-06-12T23:51:09.838Z,52.17
2018-06-12T23:53:40.105Z,51.01
2018-06-12T23:56:10.436Z,50.67
2018-06-12T23:58:40.705Z,50.30
